sensor_id;sensor_type;location;lat;lon;timestamp;temperature;humidity
38568;DHT22;24338;48.280;10.970;2022-11-09T00:00:53;5.20;99.90
38568;DHT22;24338;48.280;10.970;2022-11-09T00:03:20;5.10;99.90
38568;DHT22;24338;48.280;10.970;2022-11-09T00:05:58;5.00;99.90
38568;DHT22;24338;48.280;10.970;2022-11-09T00:08:26;5.10;99.90
38568;DHT22;24338;48.280;10.970;2022-11-09T00:10:53;5.10;99.90
38568;DHT22;24338;48.280;10.970;2022-11-09T00:13:20;5.10;99.90
38568;DHT22;24338;48.280;10.970;2022-11-09T00:15:48;5.10;99.90
38568;DHT22;24338;48.280;10.970;2022-11-09T00:18:15;5.20;99.90
38568;DHT22;24338;48.280;10.970;2022-11-09T00:20:41;5.20;99.90
38568;DHT22;24338;48.280;10.970;2022-11-09T00:23:14;5.20;99.90
38568;DHT22;24338;48.280;10.970;2022-11-09T00:25:42;5.30;99.90
38568;DHT22;24338;48.280;10.970;2022-11-09T00:28:09;5.30;99.90
38568;DHT22;24338;48.280;10.970;2022-11-09T00:30:36;5.30;99.90
38568;DHT22;24338;48.280;10.970;2022-11-09T00:33:03;5.40;99.90
38568;DHT22;24338;48.280;10.970;2022-11-09T00:35:30;5.50;99.90
38568;DHT22;24338;48.280;10.970;2022-11-09T00:37:57;5.50;99.90
38568;DHT22;24338;48.280;10.970;2022-11-09T00:40:24;5.50;99.90
38568;DHT22;24338;48.280;10.970;2022-11-09T00:42:51;5.50;99.90
38568;DHT22;24338;48.280;10.970;2022-11-09T00:45:17;5.50;99.90
38568;DHT22;24338;48.280;10.970;2022-11-09T00:47:44;5.50;99.90
38568;DHT22;24338;48.280;10.970;2022-11-09T00:50:11;5.50;99.90
38568;DHT22;24338;48.280;10.970;2022-11-09T00:52:38;5.50;99.90
38568;DHT22;24338;48.280;10.970;2022-11-09T00:55:05;5.50;99.90
38568;DHT22;24338;48.280;10.970;2022-11-09T00:57:32;5.60;99.90
38568;DHT22;24338;48.280;10.970;2022-11-09T00:59:59;5.50;99.90
38568;DHT22;24338;48.280;10.970;2022-11-09T01:02:26;5.50;99.90
38568;DHT22;24338;48.280;10.970;2022-11-09T01:04:53;5.40;99.90
38568;DHT22;24338;48.280;10.970;2022-11-09T01:07:19;5.50;99.90
38568;DHT22;24338;48.280;10.970;2022-11-09T01:09:46;5.40;99.90
38568;DHT22;24338;48.280;10.970;2022-11-09T01:12:13;5.40;99.90
38568;DHT22;24338;48.280;10.970;2022-11-09T01:14:40;5.40;99.90
38568;DHT22;24338;48.280;10.970;2022-11-09T01:17:07;5.40;99.90
38568;DHT22;24338;48.280;10.970;2022-11-09T01:19:34;5.40;99.90
38568;DHT22;24338;48.280;10.970;2022-11-09T01:22:01;5.40;99.90
38568;DHT22;24338;48.280;10.970;2022-11-09T01:24:28;5.40;99.90
38568;DHT22;24338;48.280;10.970;2022-11-09T01:26:54;5.30;99.90
38568;DHT22;24338;48.280;10.970;2022-11-09T01:29:21;5.30;99.90
38568;DHT22;24338;48.280;10.970;2022-11-09T01:31:48;5.30;99.90
38568;DHT22;24338;48.280;10.970;2022-11-09T01:34:15;5.30;99.90
38568;DHT22;24338;48.280;10.970;2022-11-09T01:36:43;5.30;99.90
38568;DHT22;24338;48.280;10.970;2022-11-09T01:39:10;5.20;99.90
38568;DHT22;24338;48.280;10.970;2022-11-09T01:41:37;5.20;99.90
38568;DHT22;24338;48.280;10.970;2022-11-09T01:44:14;5.20;99.90
38568;DHT22;24338;48.280;10.970;2022-11-09T01:46:49;5.20;99.90
38568;DHT22;24338;48.280;10.970;2022-11-09T01:52:05;5.10;99.90
38568;DHT22;24338;48.280;10.970;2022-11-09T01:54:41;5.10;99.90
38568;DHT22;24338;48.280;10.970;2022-11-09T01:57:13;5.10;99.90
38568;DHT22;24338;48.280;10.970;2022-11-09T01:59:45;5.10;99.90
38568;DHT22;24338;48.280;10.970;2022-11-09T02:02:13;5.10;99.90
38568;DHT22;24338;48.280;10.970;2022-11-09T02:04:44;5.10;99.90
38568;DHT22;24338;48.280;10.970;2022-11-09T02:07:13;5.10;99.90
38568;DHT22;24338;48.280;10.970;2022-11-09T02:10:00;5.10;99.90
38568;DHT22;24338;48.280;10.970;2022-11-09T02:12:31;5.00;99.90
38568;DHT22;24338;48.280;10.970;2022-11-09T02:15:01;5.00;99.90
38568;DHT22;24338;48.280;10.970;2022-11-09T02:17:29;5.00;99.90
38568;DHT22;24338;48.280;10.970;2022-11-09T02:19:57;4.90;99.90
38568;DHT22;24338;48.280;10.970;2022-11-09T02:22:24;4.90;99.90
38568;DHT22;24338;48.280;10.970;2022-11-09T02:24:52;4.90;99.90
38568;DHT22;24338;48.280;10.970;2022-11-09T02:27:22;4.90;99.90
38568;DHT22;24338;48.280;10.970;2022-11-09T02:29:50;4.90;99.90
38568;DHT22;24338;48.280;10.970;2022-11-09T02:32:23;4.90;99.90
38568;DHT22;24338;48.280;10.970;2022-11-09T02:34:51;4.90;99.90
38568;DHT22;24338;48.280;10.970;2022-11-09T02:37:30;4.90;99.90
38568;DHT22;24338;48.280;10.970;2022-11-09T02:40:00;4.90;99.90
38568;DHT22;24338;48.280;10.970;2022-11-09T02:42:28;4.90;99.90
38568;DHT22;24338;48.280;10.970;2022-11-09T02:44:58;4.90;99.90
38568;DHT22;24338;48.280;10.970;2022-11-09T02:47:25;4.80;99.90
38568;DHT22;24338;48.280;10.970;2022-11-09T02:49:52;4.80;99.90
38568;DHT22;24338;48.280;10.970;2022-11-09T02:52:19;4.80;99.90
38568;DHT22;24338;48.280;10.970;2022-11-09T02:54:46;4.80;99.90
38568;DHT22;24338;48.280;10.970;2022-11-09T02:57:13;4.90;99.90
38568;DHT22;24338;48.280;10.970;2022-11-09T02:59:40;4.80;99.90
38568;DHT22;24338;48.280;10.970;2022-11-09T03:02:07;4.80;99.90
38568;DHT22;24338;48.280;10.970;2022-11-09T03:04:34;4.80;99.90
38568;DHT22;24338;48.280;10.970;2022-11-09T03:07:01;4.80;99.90
38568;DHT22;24338;48.280;10.970;2022-11-09T03:09:28;4.80;99.90
38568;DHT22;24338;48.280;10.970;2022-11-09T03:11:55;4.80;99.90
38568;DHT22;24338;48.280;10.970;2022-11-09T03:14:21;4.70;99.90
38568;DHT22;24338;48.280;10.970;2022-11-09T03:16:48;4.70;99.90
38568;DHT22;24338;48.280;10.970;2022-11-09T03:19:16;4.60;99.90
38568;DHT22;24338;48.280;10.970;2022-11-09T03:21:43;4.60;99.90
38568;DHT22;24338;48.280;10.970;2022-11-09T03:24:10;4.60;99.90
38568;DHT22;24338;48.280;10.970;2022-11-09T03:26:37;4.60;99.90
38568;DHT22;24338;48.280;10.970;2022-11-09T03:29:04;4.50;99.90
38568;DHT22;24338;48.280;10.970;2022-11-09T03:31:31;4.50;99.90
38568;DHT22;24338;48.280;10.970;2022-11-09T03:33:57;4.50;99.90
38568;DHT22;24338;48.280;10.970;2022-11-09T03:36:24;4.50;99.90
38568;DHT22;24338;48.280;10.970;2022-11-09T03:38:51;4.50;99.90
38568;DHT22;24338;48.280;10.970;2022-11-09T03:41:18;4.50;99.90
38568;DHT22;24338;48.280;10.970;2022-11-09T03:43:45;4.50;99.90
38568;DHT22;24338;48.280;10.970;2022-11-09T03:46:12;4.50;99.90
38568;DHT22;24338;48.280;10.970;2022-11-09T03:48:39;4.50;99.90
38568;DHT22;24338;48.280;10.970;2022-11-09T03:51:05;4.50;99.90
38568;DHT22;24338;48.280;10.970;2022-11-09T03:53:32;4.50;99.90
38568;DHT22;24338;48.280;10.970;2022-11-09T03:55:59;4.50;99.90
38568;DHT22;24338;48.280;10.970;2022-11-09T03:58:26;4.50;99.90
38568;DHT22;24338;48.280;10.970;2022-11-09T04:00:53;4.50;99.90
38568;DHT22;24338;48.280;10.970;2022-11-09T04:03:20;4.40;99.90
38568;DHT22;24338;48.280;10.970;2022-11-09T04:05:47;4.40;99.90
38568;DHT22;24338;48.280;10.970;2022-11-09T04:08:14;4.40;99.90
38568;DHT22;24338;48.280;10.970;2022-11-09T04:10:41;4.40;99.90
38568;DHT22;24338;48.280;10.970;2022-11-09T04:13:08;4.40;99.90
38568;DHT22;24338;48.280;10.970;2022-11-09T04:15:35;4.50;99.90
38568;DHT22;24338;48.280;10.970;2022-11-09T04:18:02;4.40;99.90
38568;DHT22;24338;48.280;10.970;2022-11-09T04:20:30;4.50;99.90
38568;DHT22;24338;48.280;10.970;2022-11-09T04:22:59;4.40;99.90
38568;DHT22;24338;48.280;10.970;2022-11-09T04:25:30;4.50;99.90
38568;DHT22;24338;48.280;10.970;2022-11-09T04:27:59;4.40;99.90
38568;DHT22;24338;48.280;10.970;2022-11-09T04:30:29;4.30;99.90
38568;DHT22;24338;48.280;10.970;2022-11-09T04:32:57;4.40;99.90
38568;DHT22;24338;48.280;10.970;2022-11-09T04:35:25;4.30;99.90
38568;DHT22;24338;48.280;10.970;2022-11-09T04:38:04;4.20;99.90
38568;DHT22;24338;48.280;10.970;2022-11-09T04:40:33;4.20;99.90
38568;DHT22;24338;48.280;10.970;2022-11-09T04:43:04;4.20;99.90
38568;DHT22;24338;48.280;10.970;2022-11-09T04:45:32;4.10;99.90
38568;DHT22;24338;48.280;10.970;2022-11-09T04:48:01;4.10;99.90
38568;DHT22;24338;48.280;10.970;2022-11-09T04:50:28;4.10;99.90
38568;DHT22;24338;48.280;10.970;2022-11-09T04:53:07;4.10;99.90
38568;DHT22;24338;48.280;10.970;2022-11-09T04:55:34;4.10;99.90
38568;DHT22;24338;48.280;10.970;2022-11-09T04:58:01;4.00;99.90
38568;DHT22;24338;48.280;10.970;2022-11-09T05:00:28;4.00;99.90
38568;DHT22;24338;48.280;10.970;2022-11-09T05:03:01;4.00;99.90
38568;DHT22;24338;48.280;10.970;2022-11-09T05:05:29;4.00;99.90
38568;DHT22;24338;48.280;10.970;2022-11-09T05:07:57;4.00;99.90
38568;DHT22;24338;48.280;10.970;2022-11-09T05:10:24;3.90;99.90
38568;DHT22;24338;48.280;10.970;2022-11-09T05:13:00;3.90;99.90
38568;DHT22;24338;48.280;10.970;2022-11-09T05:15:27;3.90;99.90
38568;DHT22;24338;48.280;10.970;2022-11-09T05:17:54;3.90;99.90
38568;DHT22;24338;48.280;10.970;2022-11-09T05:20:22;3.90;99.90
38568;DHT22;24338;48.280;10.970;2022-11-09T05:22:49;3.90;99.90
38568;DHT22;24338;48.280;10.970;2022-11-09T05:25:34;3.90;99.90
38568;DHT22;24338;48.280;10.970;2022-11-09T05:28:01;3.90;99.90
38568;DHT22;24338;48.280;10.970;2022-11-09T05:30:28;3.90;99.90
38568;DHT22;24338;48.280;10.970;2022-11-09T05:32:55;3.90;99.90
38568;DHT22;24338;48.280;10.970;2022-11-09T05:35:22;4.00;99.90
38568;DHT22;24338;48.280;10.970;2022-11-09T05:37:49;4.00;99.90
38568;DHT22;24338;48.280;10.970;2022-11-09T05:40:17;4.00;99.90
38568;DHT22;24338;48.280;10.970;2022-11-09T05:42:45;4.10;99.90
38568;DHT22;24338;48.280;10.970;2022-11-09T05:45:14;4.20;99.90
38568;DHT22;24338;48.280;10.970;2022-11-09T05:48:02;4.20;99.90
38568;DHT22;24338;48.280;10.970;2022-11-09T05:50:29;4.30;99.90
38568;DHT22;24338;48.280;10.970;2022-11-09T05:53:00;4.30;99.90
38568;DHT22;24338;48.280;10.970;2022-11-09T05:55:27;4.40;99.90
38568;DHT22;24338;48.280;10.970;2022-11-09T05:57:54;4.40;99.90
38568;DHT22;24338;48.280;10.970;2022-11-09T06:00:21;4.30;99.90
38568;DHT22;24338;48.280;10.970;2022-11-09T06:02:48;4.30;99.90
38568;DHT22;24338;48.280;10.970;2022-11-09T06:05:16;4.30;99.90
38568;DHT22;24338;48.280;10.970;2022-11-09T06:07:43;4.30;99.90
38568;DHT22;24338;48.280;10.970;2022-11-09T06:10:10;4.30;99.90
38568;DHT22;24338;48.280;10.970;2022-11-09T06:12:37;4.30;99.90
38568;DHT22;24338;48.280;10.970;2022-11-09T06:15:04;4.30;99.90
38568;DHT22;24338;48.280;10.970;2022-11-09T06:17:31;4.30;99.90
38568;DHT22;24338;48.280;10.970;2022-11-09T06:19:58;4.30;99.90
38568;DHT22;24338;48.280;10.970;2022-11-09T06:22:25;4.30;99.90
38568;DHT22;24338;48.280;10.970;2022-11-09T06:24:52;4.30;99.90
38568;DHT22;24338;48.280;10.970;2022-11-09T06:27:19;4.30;99.90
38568;DHT22;24338;48.280;10.970;2022-11-09T06:29:46;4.40;99.90
38568;DHT22;24338;48.280;10.970;2022-11-09T06:32:12;4.40;99.90
38568;DHT22;24338;48.280;10.970;2022-11-09T06:34:39;4.40;99.90
38568;DHT22;24338;48.280;10.970;2022-11-09T06:37:08;4.40;99.90
38568;DHT22;24338;48.280;10.970;2022-11-09T06:39:35;4.40;99.90
38568;DHT22;24338;48.280;10.970;2022-11-09T06:42:02;4.30;99.90
38568;DHT22;24338;48.280;10.970;2022-11-09T06:44:28;4.30;99.90
38568;DHT22;24338;48.280;10.970;2022-11-09T06:46:55;4.30;99.90
38568;DHT22;24338;48.280;10.970;2022-11-09T06:49:22;4.30;99.90
38568;DHT22;24338;48.280;10.970;2022-11-09T06:51:49;4.30;99.90
38568;DHT22;24338;48.280;10.970;2022-11-09T06:54:16;4.30;99.90
38568;DHT22;24338;48.280;10.970;2022-11-09T06:56:43;4.30;99.90
38568;DHT22;24338;48.280;10.970;2022-11-09T06:59:10;4.30;99.90
38568;DHT22;24338;48.280;10.970;2022-11-09T07:01:37;4.30;99.90
38568;DHT22;24338;48.280;10.970;2022-11-09T07:04:04;4.30;99.90
38568;DHT22;24338;48.280;10.970;2022-11-09T07:06:31;4.40;99.90
38568;DHT22;24338;48.280;10.970;2022-11-09T07:08:58;4.40;99.90
38568;DHT22;24338;48.280;10.970;2022-11-09T07:11:25;4.50;99.90
38568;DHT22;24338;48.280;10.970;2022-11-09T07:13:52;4.60;99.90
38568;DHT22;24338;48.280;10.970;2022-11-09T07:16:23;4.70;99.90
38568;DHT22;24338;48.280;10.970;2022-11-09T07:18:50;4.90;99.90
38568;DHT22;24338;48.280;10.970;2022-11-09T07:21:17;5.00;99.90
38568;DHT22;24338;48.280;10.970;2022-11-09T07:23:46;5.10;99.90
38568;DHT22;24338;48.280;10.970;2022-11-09T07:26:14;5.30;99.90
38568;DHT22;24338;48.280;10.970;2022-11-09T07:28:41;5.40;99.90
38568;DHT22;24338;48.280;10.970;2022-11-09T07:31:08;5.50;99.90
38568;DHT22;24338;48.280;10.970;2022-11-09T07:33:36;5.60;99.90
38568;DHT22;24338;48.280;10.970;2022-11-09T07:36:04;5.70;99.90
38568;DHT22;24338;48.280;10.970;2022-11-09T07:38:31;5.70;99.90
38568;DHT22;24338;48.280;10.970;2022-11-09T07:40:58;5.80;99.90
38568;DHT22;24338;48.280;10.970;2022-11-09T07:43:26;6.00;99.90
38568;DHT22;24338;48.280;10.970;2022-11-09T07:45:53;6.10;99.90
38568;DHT22;24338;48.280;10.970;2022-11-09T07:48:20;6.20;99.90
38568;DHT22;24338;48.280;10.970;2022-11-09T07:50:47;6.30;99.90
38568;DHT22;24338;48.280;10.970;2022-11-09T07:53:15;6.40;99.90
38568;DHT22;24338;48.280;10.970;2022-11-09T07:55:42;6.50;99.90
38568;DHT22;24338;48.280;10.970;2022-11-09T07:58:12;6.60;99.90
38568;DHT22;24338;48.280;10.970;2022-11-09T08:00:40;6.70;99.90
38568;DHT22;24338;48.280;10.970;2022-11-09T08:03:08;6.80;99.90
38568;DHT22;24338;48.280;10.970;2022-11-09T08:05:35;7.00;99.90
38568;DHT22;24338;48.280;10.970;2022-11-09T08:08:05;7.10;99.90
38568;DHT22;24338;48.280;10.970;2022-11-09T08:10:34;7.20;99.90
38568;DHT22;24338;48.280;10.970;2022-11-09T08:13:03;7.30;99.90
38568;DHT22;24338;48.280;10.970;2022-11-09T08:15:32;7.40;99.90
38568;DHT22;24338;48.280;10.970;2022-11-09T08:18:04;7.50;99.90
38568;DHT22;24338;48.280;10.970;2022-11-09T08:20:32;7.60;99.90
38568;DHT22;24338;48.280;10.970;2022-11-09T08:22:59;7.70;99.90
38568;DHT22;24338;48.280;10.970;2022-11-09T08:25:34;7.90;99.90
38568;DHT22;24338;48.280;10.970;2022-11-09T08:28:02;8.00;99.90
38568;DHT22;24338;48.280;10.970;2022-11-09T08:30:29;8.10;99.90
38568;DHT22;24338;48.280;10.970;2022-11-09T08:32:58;8.20;99.90
38568;DHT22;24338;48.280;10.970;2022-11-09T08:35:26;8.30;99.90
38568;DHT22;24338;48.280;10.970;2022-11-09T08:37:53;8.40;99.90
38568;DHT22;24338;48.280;10.970;2022-11-09T08:40:24;8.60;99.90
38568;DHT22;24338;48.280;10.970;2022-11-09T08:42:52;8.80;99.90
38568;DHT22;24338;48.280;10.970;2022-11-09T08:45:19;8.90;99.90
38568;DHT22;24338;48.280;10.970;2022-11-09T08:47:46;9.00;99.90
38568;DHT22;24338;48.280;10.970;2022-11-09T08:50:14;9.00;99.90
38568;DHT22;24338;48.280;10.970;2022-11-09T08:52:41;9.10;99.90
38568;DHT22;24338;48.280;10.970;2022-11-09T08:55:08;9.20;99.90
38568;DHT22;24338;48.280;10.970;2022-11-09T09:00:04;9.40;99.90
38568;DHT22;24338;48.280;10.970;2022-11-09T09:02:31;9.60;99.90
38568;DHT22;24338;48.280;10.970;2022-11-09T09:04:58;9.70;99.90
38568;DHT22;24338;48.280;10.970;2022-11-09T09:07:25;9.90;99.90
38568;DHT22;24338;48.280;10.970;2022-11-09T09:09:52;10.00;99.90
38568;DHT22;24338;48.280;10.970;2022-11-09T09:12:19;10.10;99.90
38568;DHT22;24338;48.280;10.970;2022-11-09T09:14:46;10.10;99.90
38568;DHT22;24338;48.280;10.970;2022-11-09T09:17:13;10.30;99.90
38568;DHT22;24338;48.280;10.970;2022-11-09T09:19:40;10.40;99.90
38568;DHT22;24338;48.280;10.970;2022-11-09T09:22:12;10.60;99.90
38568;DHT22;24338;48.280;10.970;2022-11-09T09:24:39;10.70;99.90
38568;DHT22;24338;48.280;10.970;2022-11-09T09:27:06;10.80;99.90
38568;DHT22;24338;48.280;10.970;2022-11-09T09:29:33;11.00;99.90
38568;DHT22;24338;48.280;10.970;2022-11-09T09:32:00;11.10;99.90
38568;DHT22;24338;48.280;10.970;2022-11-09T09:34:27;11.20;99.90
38568;DHT22;24338;48.280;10.970;2022-11-09T09:36:54;11.40;99.90
38568;DHT22;24338;48.280;10.970;2022-11-09T09:39:21;11.50;99.90
38568;DHT22;24338;48.280;10.970;2022-11-09T09:41:55;11.60;99.90
38568;DHT22;24338;48.280;10.970;2022-11-09T09:49:43;12.10;99.90
38568;DHT22;24338;48.280;10.970;2022-11-09T09:55:49;12.60;99.90
38568;DHT22;24338;48.280;10.970;2022-11-09T09:58:11;12.70;99.90
38568;DHT22;24338;48.280;10.970;2022-11-09T10:00:40;12.90;99.90
38568;DHT22;24338;48.280;10.970;2022-11-09T10:03:15;13.00;99.90
38568;DHT22;24338;48.280;10.970;2022-11-09T10:08:46;13.30;99.90
38568;DHT22;24338;48.280;10.970;2022-11-09T10:16:50;13.50;99.90
38568;DHT22;24338;48.280;10.970;2022-11-09T10:22:11;13.80;99.90
38568;DHT22;24338;48.280;10.970;2022-11-09T10:24:53;13.90;99.90
38568;DHT22;24338;48.280;10.970;2022-11-09T10:28:02;14.00;99.90
38568;DHT22;24338;48.280;10.970;2022-11-09T10:30:32;14.10;99.90
38568;DHT22;24338;48.280;10.970;2022-11-09T10:33:10;14.10;99.90
38568;DHT22;24338;48.280;10.970;2022-11-09T10:36:02;14.10;99.90
38568;DHT22;24338;48.280;10.970;2022-11-09T10:38:43;14.20;99.90
38568;DHT22;24338;48.280;10.970;2022-11-09T10:41:30;14.20;99.90
38568;DHT22;24338;48.280;10.970;2022-11-09T10:43:59;14.10;99.90
38568;DHT22;24338;48.280;10.970;2022-11-09T10:46:25;14.20;99.90
38568;DHT22;24338;48.280;10.970;2022-11-09T10:48:53;14.20;99.90
38568;DHT22;24338;48.280;10.970;2022-11-09T10:51:41;14.30;99.90
38568;DHT22;24338;48.280;10.970;2022-11-09T10:54:20;14.30;99.90
38568;DHT22;24338;48.280;10.970;2022-11-09T11:07:34;14.10;99.90
38568;DHT22;24338;48.280;10.970;2022-11-09T11:12:41;14.00;99.90
38568;DHT22;24338;48.280;10.970;2022-11-09T11:17:45;13.90;99.90
38568;DHT22;24338;48.280;10.970;2022-11-09T11:20:34;13.90;99.90
38568;DHT22;24338;48.280;10.970;2022-11-09T11:23:10;14.00;99.90
38568;DHT22;24338;48.280;10.970;2022-11-09T11:28:55;13.90;99.90
38568;DHT22;24338;48.280;10.970;2022-11-09T11:31:23;13.90;99.90
38568;DHT22;24338;48.280;10.970;2022-11-09T11:33:50;13.90;99.90
38568;DHT22;24338;48.280;10.970;2022-11-09T11:36:34;14.00;99.90
38568;DHT22;24338;48.280;10.970;2022-11-09T11:44:24;14.00;99.90
38568;DHT22;24338;48.280;10.970;2022-11-09T11:47:15;14.00;99.90
38568;DHT22;24338;48.280;10.970;2022-11-09T11:56:04;14.20;99.90
38568;DHT22;24338;48.280;10.970;2022-11-09T12:06:42;14.40;99.90
38568;DHT22;24338;48.280;10.970;2022-11-09T12:09:44;14.30;99.90
38568;DHT22;24338;48.280;10.970;2022-11-09T12:15:20;14.30;99.90
38568;DHT22;24338;48.280;10.970;2022-11-09T12:26:33;14.30;99.90
38568;DHT22;24338;48.280;10.970;2022-11-09T12:29:20;14.40;99.90
38568;DHT22;24338;48.280;10.970;2022-11-09T12:37:21;14.40;99.90
38568;DHT22;24338;48.280;10.970;2022-11-09T12:39:52;14.40;99.90
38568;DHT22;24338;48.280;10.970;2022-11-09T12:42:30;14.30;99.90
38568;DHT22;24338;48.280;10.970;2022-11-09T12:45:37;14.30;99.90
38568;DHT22;24338;48.280;10.970;2022-11-09T12:50:45;14.30;99.90
38568;DHT22;24338;48.280;10.970;2022-11-09T12:53:13;14.40;99.90
38568;DHT22;24338;48.280;10.970;2022-11-09T12:58:26;14.50;99.90
38568;DHT22;24338;48.280;10.970;2022-11-09T13:00:58;14.60;99.90
38568;DHT22;24338;48.280;10.970;2022-11-09T13:03:28;14.60;99.90
38568;DHT22;24338;48.280;10.970;2022-11-09T13:06:09;14.50;99.90
38568;DHT22;24338;48.280;10.970;2022-11-09T13:08:37;14.50;99.90
38568;DHT22;24338;48.280;10.970;2022-11-09T13:11:08;14.50;99.90
38568;DHT22;24338;48.280;10.970;2022-11-09T13:13:35;14.50;99.90
38568;DHT22;24338;48.280;10.970;2022-11-09T13:16:31;14.60;99.90
38568;DHT22;24338;48.280;10.970;2022-11-09T13:19:02;14.50;99.90
38568;DHT22;24338;48.280;10.970;2022-11-09T13:23:55;14.50;99.90
38568;DHT22;24338;48.280;10.970;2022-11-09T13:32:52;14.40;99.90
38568;DHT22;24338;48.280;10.970;2022-11-09T13:34:48;14.30;99.90
38568;DHT22;24338;48.280;10.970;2022-11-09T13:37:35;14.30;99.90
38568;DHT22;24338;48.280;10.970;2022-11-09T13:48:36;14.20;99.90
38568;DHT22;24338;48.280;10.970;2022-11-09T13:51:14;14.30;99.90
38568;DHT22;24338;48.280;10.970;2022-11-09T13:59:14;14.40;99.90
38568;DHT22;24338;48.280;10.970;2022-11-09T14:01:50;14.40;99.90
38568;DHT22;24338;48.280;10.970;2022-11-09T14:06:46;14.30;99.90
38568;DHT22;24338;48.280;10.970;2022-11-09T14:09:16;14.30;99.90
38568;DHT22;24338;48.280;10.970;2022-11-09T14:11:56;14.30;99.90
38568;DHT22;24338;48.280;10.970;2022-11-09T14:17:03;14.10;99.90
38568;DHT22;24338;48.280;10.970;2022-11-09T14:19:51;14.10;99.90
38568;DHT22;24338;48.280;10.970;2022-11-09T14:22:20;14.10;99.90
38568;DHT22;24338;48.280;10.970;2022-11-09T14:24:47;14.10;99.90
38568;DHT22;24338;48.280;10.970;2022-11-09T14:27:17;14.10;99.90
38568;DHT22;24338;48.280;10.970;2022-11-09T14:29:54;14.00;99.90
38568;DHT22;24338;48.280;10.970;2022-11-09T14:34:48;13.90;99.90
38568;DHT22;24338;48.280;10.970;2022-11-09T14:37:15;13.90;99.90
38568;DHT22;24338;48.280;10.970;2022-11-09T14:39:46;13.90;99.90
38568;DHT22;24338;48.280;10.970;2022-11-09T14:42:18;13.80;99.90
38568;DHT22;24338;48.280;10.970;2022-11-09T14:44:45;13.80;99.90
38568;DHT22;24338;48.280;10.970;2022-11-09T14:47:29;13.70;99.90
38568;DHT22;24338;48.280;10.970;2022-11-09T14:49:57;13.70;99.90
38568;DHT22;24338;48.280;10.970;2022-11-09T14:52:28;13.70;99.90
38568;DHT22;24338;48.280;10.970;2022-11-09T14:54:57;13.60;99.90
38568;DHT22;24338;48.280;10.970;2022-11-09T14:57:24;13.60;99.90
38568;DHT22;24338;48.280;10.970;2022-11-09T15:02:26;13.40;99.90
38568;DHT22;24338;48.280;10.970;2022-11-09T15:04:57;13.40;99.90
38568;DHT22;24338;48.280;10.970;2022-11-09T15:07:44;13.30;99.90
38568;DHT22;24338;48.280;10.970;2022-11-09T15:10:18;13.30;99.90
38568;DHT22;24338;48.280;10.970;2022-11-09T15:12:51;13.30;99.90
38568;DHT22;24338;48.280;10.970;2022-11-09T15:15:23;13.20;99.90
38568;DHT22;24338;48.280;10.970;2022-11-09T15:17:51;13.10;99.90
38568;DHT22;24338;48.280;10.970;2022-11-09T15:22:55;13.00;99.90
38568;DHT22;24338;48.280;10.970;2022-11-09T15:25:32;12.90;99.90
38568;DHT22;24338;48.280;10.970;2022-11-09T15:28:21;12.90;99.90
38568;DHT22;24338;48.280;10.970;2022-11-09T15:33:27;12.80;99.90
38568;DHT22;24338;48.280;10.970;2022-11-09T15:36:01;12.70;99.90
38568;DHT22;24338;48.280;10.970;2022-11-09T15:38:42;12.70;99.90
38568;DHT22;24338;48.280;10.970;2022-11-09T15:41:15;12.70;99.90
38568;DHT22;24338;48.280;10.970;2022-11-09T15:43:42;12.60;99.90
38568;DHT22;24338;48.280;10.970;2022-11-09T15:46:14;12.60;99.90
38568;DHT22;24338;48.280;10.970;2022-11-09T15:48:42;12.60;99.90
38568;DHT22;24338;48.280;10.970;2022-11-09T15:51:12;12.50;99.90
38568;DHT22;24338;48.280;10.970;2022-11-09T15:53:40;12.50;99.90
38568;DHT22;24338;48.280;10.970;2022-11-09T15:56:19;12.40;99.90
38568;DHT22;24338;48.280;10.970;2022-11-09T15:58:46;12.40;99.90
38568;DHT22;24338;48.280;10.970;2022-11-09T16:01:14;12.30;99.90
38568;DHT22;24338;48.280;10.970;2022-11-09T16:03:42;12.20;99.90
38568;DHT22;24338;48.280;10.970;2022-11-09T16:06:09;12.20;99.90
38568;DHT22;24338;48.280;10.970;2022-11-09T16:08:38;12.20;99.90
38568;DHT22;24338;48.280;10.970;2022-11-09T16:11:05;12.10;99.90
38568;DHT22;24338;48.280;10.970;2022-11-09T16:13:33;12.10;99.90
38568;DHT22;24338;48.280;10.970;2022-11-09T16:16:01;12.10;99.90
38568;DHT22;24338;48.280;10.970;2022-11-09T16:18:29;12.00;99.90
38568;DHT22;24338;48.280;10.970;2022-11-09T16:20:56;12.00;99.90
38568;DHT22;24338;48.280;10.970;2022-11-09T16:23:24;12.00;99.90
38568;DHT22;24338;48.280;10.970;2022-11-09T16:25:51;12.00;99.90
38568;DHT22;24338;48.280;10.970;2022-11-09T16:28:18;11.90;99.90
38568;DHT22;24338;48.280;10.970;2022-11-09T16:30:45;11.90;99.90
38568;DHT22;24338;48.280;10.970;2022-11-09T16:33:12;11.80;99.90
38568;DHT22;24338;48.280;10.970;2022-11-09T16:35:39;11.70;99.90
38568;DHT22;24338;48.280;10.970;2022-11-09T16:38:06;11.70;99.90
38568;DHT22;24338;48.280;10.970;2022-11-09T16:40:33;11.70;99.90
38568;DHT22;24338;48.280;10.970;2022-11-09T16:43:00;11.60;99.90
38568;DHT22;24338;48.280;10.970;2022-11-09T16:45:28;11.60;99.90
38568;DHT22;24338;48.280;10.970;2022-11-09T16:48:02;11.60;99.90
38568;DHT22;24338;48.280;10.970;2022-11-09T16:50:30;11.60;99.90
38568;DHT22;24338;48.280;10.970;2022-11-09T16:52:56;11.50;99.90
38568;DHT22;24338;48.280;10.970;2022-11-09T16:55:23;11.50;99.90
38568;DHT22;24338;48.280;10.970;2022-11-09T16:57:50;11.50;99.90
38568;DHT22;24338;48.280;10.970;2022-11-09T17:00:17;11.50;99.90
38568;DHT22;24338;48.280;10.970;2022-11-09T17:02:48;11.40;99.90
38568;DHT22;24338;48.280;10.970;2022-11-09T17:05:15;11.40;99.90
38568;DHT22;24338;48.280;10.970;2022-11-09T17:07:43;11.40;99.90
38568;DHT22;24338;48.280;10.970;2022-11-09T17:10:12;11.30;99.90
38568;DHT22;24338;48.280;10.970;2022-11-09T17:12:39;11.30;99.90
38568;DHT22;24338;48.280;10.970;2022-11-09T17:15:07;11.30;99.90
38568;DHT22;24338;48.280;10.970;2022-11-09T17:17:34;11.30;99.90
38568;DHT22;24338;48.280;10.970;2022-11-09T17:20:01;11.30;99.90
38568;DHT22;24338;48.280;10.970;2022-11-09T17:22:30;11.20;99.90
38568;DHT22;24338;48.280;10.970;2022-11-09T17:24:57;11.20;99.90
38568;DHT22;24338;48.280;10.970;2022-11-09T17:27:24;11.20;99.90
38568;DHT22;24338;48.280;10.970;2022-11-09T17:29:51;11.20;99.90
38568;DHT22;24338;48.280;10.970;2022-11-09T17:32:18;11.10;99.90
38568;DHT22;24338;48.280;10.970;2022-11-09T17:34:50;11.10;99.90
38568;DHT22;24338;48.280;10.970;2022-11-09T17:37:17;11.00;99.90
38568;DHT22;24338;48.280;10.970;2022-11-09T17:39:45;11.00;99.90
38568;DHT22;24338;48.280;10.970;2022-11-09T17:42:12;11.00;99.90
38568;DHT22;24338;48.280;10.970;2022-11-09T17:44:38;11.00;99.90